sensor_id;sensor_type;location;lat;lon;timestamp;pressure;altitude;pressure_sealevel;temperature;humidity
58243;BME280;50118;53.232;8.252;2024-02-26T00:02:11;100223.53;;;-0.09;100.00
58243;BME280;50118;53.232;8.252;2024-02-26T00:04:36;100222.03;;;-0.13;100.00
58243;BME280;50118;53.232;8.252;2024-02-26T00:07:02;100224.00;;;-0.17;100.00
58243;BME280;50118;53.232;8.252;2024-02-26T00:09:27;100227.25;;;-0.13;100.00
58243;BME280;50118;53.232;8.252;2024-02-26T00:11:53;100215.34;;;-0.19;100.00
58243;BME280;50118;53.232;8.252;2024-02-26T00:14:19;100224.06;;;-0.18;100.00
58243;BME280;50118;53.232;8.252;2024-02-26T00:16:44;100222.38;;;-0.20;100.00
58243;BME280;50118;53.232;8.252;2024-02-26T00:19:10;100213.41;;;-0.15;100.00
58243;BME280;50118;53.232;8.252;2024-02-26T00:21:40;100216.97;;;-0.16;100.00
58243;BME280;50118;53.232;8.252;2024-02-26T00:24:05;100217.22;;;-0.21;100.00
58243;BME280;50118;53.232;8.252;2024-02-26T00:26:31;100213.44;;;-0.31;100.00
58243;BME280;50118;53.232;8.252;2024-02-26T00:28:56;100212.13;;;-0.39;100.00
58243;BME280;50118;53.232;8.252;2024-02-26T00:31:22;100214.16;;;-0.44;100.00
58243;BME280;50118;53.232;8.252;2024-02-26T00:33:47;100214.91;;;-0.42;100.00
58243;BME280;50118;53.232;8.252;2024-02-26T00:36:13;100216.63;;;-0.41;100.00
58243;BME280;50118;53.232;8.252;2024-02-26T00:38:38;100214.00;;;-0.41;100.00
58243;BME280;50118;53.232;8.252;2024-02-26T00:41:05;100206.66;;;-0.50;100.00
58243;BME280;50118;53.232;8.252;2024-02-26T00:43:31;100204.22;;;-0.53;100.00
58243;BME280;50118;53.232;8.252;2024-02-26T00:45:56;100209.44;;;-0.53;100.00
58243;BME280;50118;53.232;8.252;2024-02-26T00:48:21;100220.84;;;-0.54;100.00
58243;BME280;50118;53.232;8.252;2024-02-26T00:50:47;100216.53;;;-0.55;100.00
58243;BME280;50118;53.232;8.252;2024-02-26T00:53:12;100217.50;;;-0.56;100.00
58243;BME280;50118;53.232;8.252;2024-02-26T00:55:38;100221.94;;;-0.58;100.00
58243;BME280;50118;53.232;8.252;2024-02-26T00:58:03;100218.75;;;-0.63;100.00
58243;BME280;50118;53.232;8.252;2024-02-26T01:00:29;100213.69;;;-0.66;100.00
58243;BME280;50118;53.232;8.252;2024-02-26T01:02:54;100217.22;;;-0.67;100.00
58243;BME280;50118;53.232;8.252;2024-02-26T01:05:20;100218.94;;;-0.66;100.00
58243;BME280;50118;53.232;8.252;2024-02-26T01:07:45;100210.88;;;-0.63;100.00
58243;BME280;50118;53.232;8.252;2024-02-26T01:10:11;100209.81;;;-0.59;100.00
58243;BME280;50118;53.232;8.252;2024-02-26T01:12:36;100211.66;;;-0.61;100.00
58243;BME280;50118;53.232;8.252;2024-02-26T01:15:02;100216.72;;;-0.58;100.00
58243;BME280;50118;53.232;8.252;2024-02-26T01:17:28;100203.72;;;-0.60;100.00
58243;BME280;50118;53.232;8.252;2024-02-26T01:19:55;100211.47;;;-0.58;100.00
58243;BME280;50118;53.232;8.252;2024-02-26T01:22:20;100204.00;;;-0.64;100.00
58243;BME280;50118;53.232;8.252;2024-02-26T01:24:46;100215.19;;;-0.62;100.00
58243;BME280;50118;53.232;8.252;2024-02-26T01:27:11;100217.66;;;-0.59;100.00
58243;BME280;50118;53.232;8.252;2024-02-26T01:29:37;100228.53;;;-0.67;100.00
58243;BME280;50118;53.232;8.252;2024-02-26T01:32:03;100234.97;;;-0.72;100.00
58243;BME280;50118;53.232;8.252;2024-02-26T01:34:30;100220.09;;;-0.72;100.00
58243;BME280;50118;53.232;8.252;2024-02-26T01:36:56;100232.50;;;-0.76;100.00
58243;BME280;50118;53.232;8.252;2024-02-26T01:39:21;100227.03;;;-0.71;100.00
58243;BME280;50118;53.232;8.252;2024-02-26T01:41:47;100223.47;;;-0.70;100.00
58243;BME280;50118;53.232;8.252;2024-02-26T01:44:13;100228.03;;;-0.73;100.00
58243;BME280;50118;53.232;8.252;2024-02-26T01:46:39;100218.94;;;-0.82;100.00
58243;BME280;50118;53.232;8.252;2024-02-26T01:49:04;100215.56;;;-0.84;100.00
58243;BME280;50118;53.232;8.252;2024-02-26T01:51:30;100212.53;;;-0.77;100.00
58243;BME280;50118;53.232;8.252;2024-02-26T01:53:58;100216.16;;;-0.79;100.00
58243;BME280;50118;53.232;8.252;2024-02-26T01:56:24;100219.25;;;-0.72;100.00
58243;BME280;50118;53.232;8.252;2024-02-26T01:58:55;100212.53;;;-0.77;100.00
58243;BME280;50118;53.232;8.252;2024-02-26T02:01:22;100214.53;;;-0.66;100.00
58243;BME280;50118;53.232;8.252;2024-02-26T02:03:50;100210.13;;;-0.65;100.00
58243;BME280;50118;53.232;8.252;2024-02-26T02:06:16;100214.53;;;-0.66;100.00
58243;BME280;50118;53.232;8.252;2024-02-26T02:08:42;100220.44;;;-0.62;100.00
58243;BME280;50118;53.232;8.252;2024-02-26T02:11:08;100211.47;;;-0.58;100.00
58243;BME280;50118;53.232;8.252;2024-02-26T02:13:36;100216.53;;;-0.55;100.00
58243;BME280;50118;53.232;8.252;2024-02-26T02:16:02;100221.59;;;-0.52;100.00
58243;BME280;50118;53.232;8.252;2024-02-26T02:18:28;100227.75;;;-0.53;100.00
58243;BME280;50118;53.232;8.252;2024-02-26T02:20:53;100225.13;;;-0.53;100.00
58243;BME280;50118;53.232;8.252;2024-02-26T02:23:19;100223.09;;;-0.48;100.00
58243;BME280;50118;53.232;8.252;2024-02-26T02:25:44;100229.88;;;-0.44;100.00
58243;BME280;50118;53.232;8.252;2024-02-26T02:28:10;100233.94;;;-0.54;100.00
58243;BME280;50118;53.232;8.252;2024-02-26T02:30:36;100235.38;;;-0.64;100.00
58243;BME280;50118;53.232;8.252;2024-02-26T02:33:03;100235.47;;;-0.66;100.00
58243;BME280;50118;53.232;8.252;2024-02-26T02:35:28;100235.38;;;-0.64;100.00
58243;BME280;50118;53.232;8.252;2024-02-26T02:37:55;100225.66;;;-0.62;100.00
58243;BME280;50118;53.232;8.252;2024-02-26T02:40:21;100228.34;;;-0.48;100.00
58243;BME280;50118;53.232;8.252;2024-02-26T02:42:46;100224.53;;;-0.42;100.00
58243;BME280;50118;53.232;8.252;2024-02-26T02:45:11;100226.78;;;-0.36;100.00
58243;BME280;50118;53.232;8.252;2024-02-26T02:47:37;100224.25;;;-0.38;100.00
58243;BME280;50118;53.232;8.252;2024-02-26T02:50:06;100233.22;;;-0.42;100.00
58243;BME280;50118;53.232;8.252;2024-02-26T02:52:31;100240.50;;;-0.47;100.00
58243;BME280;50118;53.232;8.252;2024-02-26T02:54:58;100240.66;;;-0.50;100.00
58243;BME280;50118;53.232;8.252;2024-02-26T02:57:23;100237.84;;;-0.61;100.00
58243;BME280;50118;53.232;8.252;2024-02-26T02:59:48;100243.91;;;-0.61;100.00
58243;BME280;50118;53.232;8.252;2024-02-26T03:02:14;100248.63;;;-0.67;100.00
58243;BME280;50118;53.232;8.252;2024-02-26T03:04:39;100244.59;;;-0.73;100.00
58243;BME280;50118;53.232;8.252;2024-02-26T03:07:05;100242.13;;;-0.76;100.00
58243;BME280;50118;53.232;8.252;2024-02-26T03:09:30;100246.41;;;-0.75;100.00
58243;BME280;50118;53.232;8.252;2024-02-26T03:11:56;100247.00;;;-0.70;100.00
58243;BME280;50118;53.232;8.252;2024-02-26T03:14:21;100244.22;;;-0.67;100.00
58243;BME280;50118;53.232;8.252;2024-02-26T03:16:47;100251.25;;;-0.67;100.00
58243;BME280;50118;53.232;8.252;2024-02-26T03:19:15;100263.88;;;-0.60;100.00
58243;BME280;50118;53.232;8.252;2024-02-26T03:21:44;100246.84;;;-0.51;100.00
58243;BME280;50118;53.232;8.252;2024-02-26T03:24:10;100255.63;;;-0.52;100.00
58243;BME280;50118;53.232;8.252;2024-02-26T03:26:37;100250.63;;;-0.41;100.00
58243;BME280;50118;53.232;8.252;2024-02-26T03:29:03;100257.13;;;-0.48;100.00
58243;BME280;50118;53.232;8.252;2024-02-26T03:31:29;100264.06;;;-0.47;100.00
58243;BME280;50118;53.232;8.252;2024-02-26T03:33:54;100273.69;;;-0.47;100.00
58243;BME280;50118;53.232;8.252;2024-02-26T03:36:19;100275.78;;;-0.38;100.00
58243;BME280;50118;53.232;8.252;2024-02-26T03:38:46;100279.13;;;-0.36;100.00
58243;BME280;50118;53.232;8.252;2024-02-26T03:41:12;100290.88;;;-0.27;100.00
58243;BME280;50118;53.232;8.252;2024-02-26T03:43:37;100302.28;;;-0.28;100.00
58243;BME280;50118;53.232;8.252;2024-02-26T03:46:03;100290.97;;;-0.29;100.00
58243;BME280;50118;53.232;8.252;2024-02-26T03:48:28;100301.75;;;-0.19;100.00
58243;BME280;50118;53.232;8.252;2024-02-26T03:50:54;100309.78;;;-0.22;100.00
58243;BME280;50118;53.232;8.252;2024-02-26T03:53:19;100303.78;;;-0.24;100.00
58243;BME280;50118;53.232;8.252;2024-02-26T03:55:45;100307.59;;;-0.30;100.00
58243;BME280;50118;53.232;8.252;2024-02-26T03:58:12;100307.63;;;-0.46;100.00
58243;BME280;50118;53.232;8.252;2024-02-26T04:00:37;100312.75;;;-0.60;100.00
58243;BME280;50118;53.232;8.252;2024-02-26T04:03:03;100316.47;;;-0.64;100.00
58243;BME280;50118;53.232;8.252;2024-02-26T04:05:28;100317.75;;;-0.71;100.00
58243;BME280;50118;53.232;8.252;2024-02-26T04:07:54;100316.38;;;-0.79;100.00
58243;BME280;50118;53.232;8.252;2024-02-26T04:10:19;100321.00;;;-0.84;100.00
58243;BME280;50118;53.232;8.252;2024-02-26T04:12:45;100325.31;;;-0.83;100.00
58243;BME280;50118;53.232;8.252;2024-02-26T04:15:11;100328.94;;;-0.85;100.00
58243;BME280;50118;53.232;8.252;2024-02-26T04:17:37;100328.69;;;-0.81;100.00
58243;BME280;50118;53.232;8.252;2024-02-26T04:20:04;100330.63;;;-0.68;100.00
58243;BME280;50118;53.232;8.252;2024-02-26T04:22:30;100326.44;;;-0.71;100.00
58243;BME280;50118;53.232;8.252;2024-02-26T04:24:56;100332.66;;;-0.73;100.00
58243;BME280;50118;53.232;8.252;2024-02-26T04:27:21;100331.31;;;-0.81;100.00
58243;BME280;50118;53.232;8.252;2024-02-26T04:29:47;100335.94;;;-0.86;100.00
58243;BME280;50118;53.232;8.252;2024-02-26T04:32:12;100339.25;;;-0.50;100.00
58243;BME280;50118;53.232;8.252;2024-02-26T04:34:37;100343.81;;;-0.38;100.00
58243;BME280;50118;53.232;8.252;2024-02-26T04:37:03;100346.78;;;-0.28;100.00
58243;BME280;50118;53.232;8.252;2024-02-26T04:39:28;100344.66;;;-0.22;100.00
58243;BME280;50118;53.232;8.252;2024-02-26T04:41:54;100356.56;;;-0.16;100.00
58243;BME280;50118;53.232;8.252;2024-02-26T04:44:20;100347.19;;;-0.20;100.00
58243;BME280;50118;53.232;8.252;2024-02-26T04:46:45;100357.38;;;-0.15;100.00
58243;BME280;50118;53.232;8.252;2024-02-26T04:49:10;100355.88;;;-0.20;100.00
58243;BME280;50118;53.232;8.252;2024-02-26T04:51:36;100357.84;;;-0.23;100.00
58243;BME280;50118;53.232;8.252;2024-02-26T04:54:02;100356.97;;;-0.08;100.00
58243;BME280;50118;53.232;8.252;2024-02-26T04:56:27;100354.09;;;-0.03;100.00
58243;BME280;50118;53.232;8.252;2024-02-26T04:58:53;100361.78;;;0.00;100.00
58243;BME280;50118;53.232;8.252;2024-02-26T05:01:18;100371.97;;;0.05;100.00
58243;BME280;50118;53.232;8.252;2024-02-26T05:03:44;100366.75;;;0.05;100.00
58243;BME280;50118;53.232;8.252;2024-02-26T05:06:09;100369.44;;;0.03;100.00
58243;BME280;50118;53.232;8.252;2024-02-26T05:08:35;100373.19;;;-0.01;100.00
58243;BME280;50118;53.232;8.252;2024-02-26T05:11:04;100371.50;;;-0.18;100.00
58243;BME280;50118;53.232;8.252;2024-02-26T05:13:32;100376.75;;;-0.18;100.00
58243;BME280;50118;53.232;8.252;2024-02-26T05:15:58;100381.53;;;-0.10;100.00
58243;BME280;50118;53.232;8.252;2024-02-26T05:18:23;100379.78;;;-0.10;100.00
58243;BME280;50118;53.232;8.252;2024-02-26T05:20:49;100395.97;;;-0.19;100.00
58243;BME280;50118;53.232;8.252;2024-02-26T05:23:14;100390.00;;;-0.21;100.00
58243;BME280;50118;53.232;8.252;2024-02-26T05:25:40;100391.63;;;-0.18;100.00
58243;BME280;50118;53.232;8.252;2024-02-26T05:28:06;100396.50;;;-0.12;100.00
58243;BME280;50118;53.232;8.252;2024-02-26T05:30:32;100394.91;;;-0.15;100.00
58243;BME280;50118;53.232;8.252;2024-02-26T05:32:57;100397.53;;;-0.15;100.00
58243;BME280;50118;53.232;8.252;2024-02-26T05:35:22;100397.69;;;-0.18;100.00
58243;BME280;50118;53.232;8.252;2024-02-26T05:37:48;100406.72;;;-0.08;100.00
58243;BME280;50118;53.232;8.252;2024-02-26T05:40:13;100406.88;;;-0.11;100.00
58243;BME280;50118;53.232;8.252;2024-02-26T05:42:39;100405.63;;;-0.20;100.00
58243;BME280;50118;53.232;8.252;2024-02-26T05:45:08;100419.63;;;-0.21;100.00
58243;BME280;50118;53.232;8.252;2024-02-26T05:47:33;100423.03;;;-0.18;100.00
58243;BME280;50118;53.232;8.252;2024-02-26T05:49:59;100423.94;;;-0.20;100.00
58243;BME280;50118;53.232;8.252;2024-02-26T05:52:26;100423.50;;;-0.28;100.00
58243;BME280;50118;53.232;8.252;2024-02-26T05:54:51;100427.75;;;-0.25;100.00
58243;BME280;50118;53.232;8.252;2024-02-26T05:57:17;100422.16;;;-0.35;100.00
58243;BME280;50118;53.232;8.252;2024-02-26T05:59:43;100426.72;;;-0.39;100.00
58243;BME280;50118;53.232;8.252;2024-02-26T06:02:09;100433.00;;;-0.25;100.00
58243;BME280;50118;53.232;8.252;2024-02-26T06:04:34;100427.75;;;-0.25;100.00
58243;BME280;50118;53.232;8.252;2024-02-26T06:07:00;100429.44;;;-0.24;100.00
58243;BME280;50118;53.232;8.252;2024-02-26T06:09:28;100429.09;;;-0.18;100.00
58243;BME280;50118;53.232;8.252;2024-02-26T06:11:54;100435.19;;;-0.17;100.00
58243;BME280;50118;53.232;8.252;2024-02-26T06:14:19;100438.66;;;-0.17;100.00
58243;BME280;50118;53.232;8.252;2024-02-26T06:16:46;100427.00;;;-0.11;100.00
58243;BME280;50118;53.232;8.252;2024-02-26T06:19:11;100435.09;;;-0.16;100.00
58243;BME280;50118;53.232;8.252;2024-02-26T06:21:37;100438.38;;;-0.12;100.00
58243;BME280;50118;53.232;8.252;2024-02-26T06:24:02;100448.84;;;-0.12;100.00
58243;BME280;50118;53.232;8.252;2024-02-26T06:26:28;100448.53;;;-0.06;100.00
58243;BME280;50118;53.232;8.252;2024-02-26T06:28:55;100450.41;;;-0.08;100.00
58243;BME280;50118;53.232;8.252;2024-02-26T06:31:22;100449.63;;;0.06;100.00
58243;BME280;50118;53.232;8.252;2024-02-26T06:33:48;100460.34;;;0.01;100.00
58243;BME280;50118;53.232;8.252;2024-02-26T06:36:15;100461.19;;;0.02;100.00
58243;BME280;50118;53.232;8.252;2024-02-26T06:38:41;100466.53;;;0.00;100.00
58243;BME280;50118;53.232;8.252;2024-02-26T06:41:06;100463.06;;;-0.01;100.00
58243;BME280;50118;53.232;8.252;2024-02-26T06:43:32;100465.09;;;0.10;100.00
58243;BME280;50118;53.232;8.252;2024-02-26T06:45:57;100464.16;;;0.11;100.00
58243;BME280;50118;53.232;8.252;2024-02-26T06:48:24;100467.88;;;0.07;100.00
58243;BME280;50118;53.232;8.252;2024-02-26T06:50:49;100468.81;;;0.06;100.00
58243;BME280;50118;53.232;8.252;2024-02-26T06:53:15;100466.84;;;0.10;100.00
58243;BME280;50118;53.232;8.252;2024-02-26T06:55:41;100472.25;;;0.07;100.00
58243;BME280;50118;53.232;8.252;2024-02-26T06:58:08;100481.66;;;0.11;100.00
58243;BME280;50118;53.232;8.252;2024-02-26T07:00:34;100478.09;;;0.12;100.00
58243;BME280;50118;53.232;8.252;2024-02-26T07:03:02;100483.00;;;0.18;100.00
58243;BME280;50118;53.232;8.252;2024-02-26T07:05:28;100487.91;;;0.24;100.00
58243;BME280;50118;53.232;8.252;2024-02-26T07:07:54;100484.34;;;0.25;100.00
58243;BME280;50118;53.232;8.252;2024-02-26T07:10:19;100483.84;;;0.34;100.00
58243;BME280;50118;53.232;8.252;2024-02-26T07:12:47;100494.75;;;0.43;100.00
58243;BME280;50118;53.232;8.252;2024-02-26T07:15:13;100488.81;;;0.39;100.00
58243;BME280;50118;53.232;8.252;2024-02-26T07:17:38;100496.50;;;0.42;100.00
58243;BME280;50118;53.232;8.252;2024-02-26T07:20:08;100504.19;;;0.45;100.00
58243;BME280;50118;53.232;8.252;2024-02-26T07:22:33;100505.69;;;0.49;100.00
58243;BME280;50118;53.232;8.252;2024-02-26T07:25:02;100509.03;;;0.53;100.00
58243;BME280;50118;53.232;8.252;2024-02-26T07:27:28;100509.53;;;0.60;100.00
58243;BME280;50118;53.232;8.252;2024-02-26T07:29:54;100513.91;;;0.59;100.00
58243;BME280;50118;53.232;8.252;2024-02-26T07:32:19;100519.22;;;0.58;100.00
58243;BME280;50118;53.232;8.252;2024-02-26T07:34:45;100523.50;;;0.74;100.00
58243;BME280;50118;53.232;8.252;2024-02-26T07:37:11;100529.63;;;0.75;100.00
58243;BME280;50118;53.232;8.252;2024-02-26T07:39:37;100529.34;;;0.80;100.00
58243;BME280;50118;53.232;8.252;2024-02-26T07:42:03;100537.03;;;0.83;100.00
58243;BME280;50118;53.232;8.252;2024-02-26T07:44:28;100534.81;;;0.91;100.00
58243;BME280;50118;53.232;8.252;2024-02-26T07:46:54;100533.28;;;0.87;100.00
58243;BME280;50118;53.232;8.252;2024-02-26T07:49:19;100536.56;;;1.06;100.00
58243;BME280;50118;53.232;8.252;2024-02-26T07:51:45;100550.00;;;1.16;100.00
58243;BME280;50118;53.232;8.252;2024-02-26T07:54:11;100549.81;;;1.19;100.00
58243;BME280;50118;53.232;8.252;2024-02-26T07:56:36;100545.91;;;1.26;100.00
58243;BME280;50118;53.232;8.252;2024-02-26T07:59:02;100562.22;;;1.32;100.00
58243;BME280;50118;53.232;8.252;2024-02-26T08:01:27;100559.09;;;1.25;100.00
58243;BME280;50118;53.232;8.252;2024-02-26T08:03:53;100564.19;;;1.28;100.00
58243;BME280;50118;53.232;8.252;2024-02-26T08:06:19;100553.47;;;1.31;100.00
58243;BME280;50118;53.232;8.252;2024-02-26T08:08:44;100558.16;;;1.26;100.00
58243;BME280;50118;53.232;8.252;2024-02-26T08:11:09;100559.22;;;1.38;100.00
58243;BME280;50118;53.232;8.252;2024-02-26T08:13:35;100555.97;;;1.48;100.00
58243;BME280;50118;53.232;8.252;2024-02-26T08:16:01;100556.72;;;1.51;100.00
58243;BME280;50118;53.232;8.252;2024-02-26T08:18:26;100557.47;;;1.53;100.00
58243;BME280;50118;53.232;8.252;2024-02-26T08:20:52;100565.81;;;1.59;100.00
58243;BME280;50118;53.232;8.252;2024-02-26T08:23:18;100568.38;;;1.61;100.00
58243;BME280;50118;53.232;8.252;2024-02-26T08:25:43;100567.13;;;1.66;100.00
58243;BME280;50118;53.232;8.252;2024-02-26T08:28:09;100570.91;;;1.77;100.00
58243;BME280;50118;53.232;8.252;2024-02-26T08:30:36;100571.56;;;1.80;100.00
58243;BME280;50118;53.232;8.252;2024-02-26T08:33:01;100575.31;;;1.76;100.00
58243;BME280;50118;53.232;8.252;2024-02-26T08:35:28;100585.25;;;1.85;100.00
58243;BME280;50118;53.232;8.252;2024-02-26T08:37:53;100582.19;;;1.93;100.00
58243;BME280;50118;53.232;8.252;2024-02-26T08:40:18;100591.47;;;1.99;100.00
58243;BME280;50118;53.232;8.252;2024-02-26T08:42:46;100590.63;;;1.98;100.00
58243;BME280;50118;53.232;8.252;2024-02-26T08:45:11;100600.56;;;2.08;100.00
58243;BME280;50118;53.232;8.252;2024-02-26T08:47:38;100600.00;;;2.17;100.00
58243;BME280;50118;53.232;8.252;2024-02-26T08:50:04;100604.97;;;2.36;100.00
58243;BME280;50118;53.232;8.252;2024-02-26T08:52:29;100607.78;;;2.33;100.00
58243;BME280;50118;53.232;8.252;2024-02-26T08:54:54;100607.50;;;2.37;100.00
58243;BME280;50118;53.232;8.252;2024-02-26T08:57:20;100621.84;;;2.46;100.00
58243;BME280;50118;53.232;8.252;2024-02-26T08:59:45;100614.88;;;2.45;100.00
58243;BME280;50118;53.232;8.252;2024-02-26T09:02:11;100610.31;;;2.49;100.00
58243;BME280;50118;53.232;8.252;2024-02-26T09:04:36;100617.72;;;2.42;100.00
58243;BME280;50118;53.232;8.252;2024-02-26T09:07:02;100616.22;;;2.52;100.00
58243;BME280;50118;53.232;8.252;2024-02-26T09:09:27;100615.91;;;2.71;100.00
58243;BME280;50118;53.232;8.252;2024-02-26T09:11:53;100617.88;;;2.68;100.00
58243;BME280;50118;53.232;8.252;2024-02-26T09:14:20;100627.72;;;2.78;100.00
58243;BME280;50118;53.232;8.252;2024-02-26T09:16:46;100634.22;;;2.73;100.00
58243;BME280;50118;53.232;8.252;2024-02-26T09:19:16;100628.75;;;2.76;100.00
58243;BME280;50118;53.232;8.252;2024-02-26T09:21:45;100635.69;;;2.77;100.00
58243;BME280;50118;53.232;8.252;2024-02-26T09:24:11;100636.19;;;2.69;100.00
58243;BME280;50118;53.232;8.252;2024-02-26T09:26:37;100627.72;;;2.78;100.00
58243;BME280;50118;53.232;8.252;2024-02-26T09:29:02;100639.06;;;2.79;100.00
58243;BME280;50118;53.232;8.252;2024-02-26T09:31:29;100642.66;;;2.78;100.00
58243;BME280;50118;53.232;8.252;2024-02-26T09:33:55;100642.22;;;2.98;100.00
58243;BME280;50118;53.232;8.252;2024-02-26T09:36:20;100645.53;;;3.15;100.00
58243;BME280;50118;53.232;8.252;2024-02-26T09:38:46;100659.25;;;3.20;100.00
58243;BME280;50118;53.232;8.252;2024-02-26T09:41:15;100649.00;;;3.43;100.00
58243;BME280;50118;53.232;8.252;2024-02-26T09:43:43;100648.28;;;3.41;100.00
58243;BME280;50118;53.232;8.252;2024-02-26T09:46:10;100647.94;;;3.32;100.00
58243;BME280;50118;53.232;8.252;2024-02-26T09:48:35;100648.81;;;3.46;100.00
58243;BME280;50118;53.232;8.252;2024-02-26T09:51:02;100655.59;;;3.63;100.00
58243;BME280;50118;53.232;8.252;2024-02-26T09:53:29;100656.00;;;3.69;100.00
58243;BME280;50118;53.232;8.252;2024-02-26T09:55:57;100657.19;;;3.38;100.00
58243;BME280;50118;53.232;8.252;2024-02-26T09:58:24;100663.25;;;3.66;100.00
58243;BME280;50118;53.232;8.252;2024-02-26T10:00:53;100671.75;;;3.44;100.00
58243;BME280;50118;53.232;8.252;2024-02-26T10:03:25;100670.53;;;3.49;100.00
58243;BME280;50118;53.232;8.252;2024-02-26T10:05:53;100665.88;;;3.53;100.00
58243;BME280;50118;53.232;8.252;2024-02-26T10:08:21;100664.28;;;3.50;100.00
58243;BME280;50118;53.232;8.252;2024-02-26T10:10:47;100681.13;;;3.75;100.00
58243;BME280;50118;53.232;8.252;2024-02-26T10:13:16;100680.25;;;3.74;100.00
58243;BME280;50118;53.232;8.252;2024-02-26T10:15:41;100683.00;;;3.86;100.00
58243;BME280;50118;53.232;8.252;2024-02-26T10:18:07;100684.63;;;4.01;100.00
58243;BME280;50118;53.232;8.252;2024-02-26T10:20:32;100689.13;;;3.73;100.00
58243;BME280;50118;53.232;8.252;2024-02-26T10:23:01;100689.03;;;3.88;100.00
58243;BME280;50118;53.232;8.252;2024-02-26T10:25:27;100694.63;;;3.96;100.00
58243;BME280;50118;53.232;8.252;2024-02-26T10:27:52;100692.53;;;4.01;100.00
58243;BME280;50118;53.232;8.252;2024-02-26T10:30:19;100698.84;;;4.11;100.00
58243;BME280;50118;53.232;8.252;2024-02-26T10:32:47;100697.81;;;4.40;100.00
58243;BME280;50118;53.232;8.252;2024-02-26T10:35:13;100706.88;;;4.23;100.00
58243;BME280;50118;53.232;8.252;2024-02-26T10:37:42;100708.56;;;4.24;100.00
58243;BME280;50118;53.232;8.252;2024-02-26T10:40:11;100715.31;;;4.28;100.00
58243;BME280;50118;53.232;8.252;2024-02-26T10:42:37;100703.91;;;4.15;100.00
58243;BME280;50118;53.232;8.252;2024-02-26T10:45:05;100714.66;;;4.11;100.00
58243;BME280;50118;53.232;8.252;2024-02-26T10:47:31;100721.00;;;4.22;100.00
58243;BME280;50118;53.232;8.252;2024-02-26T10:49:58;100712.78;;;4.26;100.00
58243;BME280;50118;53.232;8.252;2024-02-26T10:52:25;100720.91;;;4.36;100.00
58243;BME280;50118;53.232;8.252;2024-02-26T10:54:53;100722.50;;;4.26;100.00
58243;BME280;50118;53.232;8.252;2024-02-26T10:57:22;100727.03;;;4.49;100.00
58243;BME280;50118;53.232;8.252;2024-02-26T10:59:51;100721.03;;;4.35;100.00
58243;BME280;50118;53.232;8.252;2024-02-26T11:02:17;100719.75;;;4.15;100.00
58243;BME280;50118;53.232;8.252;2024-02-26T11:04:44;100732.91;;;4.15;100.00
58243;BME280;50118;53.232;8.252;2024-02-26T11:07:10;100729.88;;;4.34;100.00
58243;BME280;50118;53.232;8.252;2024-02-26T11:09:37;100733.25;;;4.36;100.00
58243;BME280;50118;53.232;8.252;2024-02-26T11:12:09;100731.47;;;4.36;100.00
58243;BME280;50118;53.232;8.252;2024-02-26T11:14:39;100725.13;;;4.52;100.00
58243;BME280;50118;53.232;8.252;2024-02-26T11:17:07;100731.03;;;4.55;100.00
58243;BME280;50118;53.232;8.252;2024-02-26T11:19:35;100730.50;;;4.63;100.00
58243;BME280;50118;53.232;8.252;2024-02-26T11:22:01;100740.09;;;4.64;100.00
58243;BME280;50118;53.232;8.252;2024-02-26T11:24:26;100727.06;;;4.86;100.00
58243;BME280;50118;53.232;8.252;2024-02-26T11:26:57;100740.56;;;5.08;100.00
58243;BME280;50118;53.232;8.252;2024-02-26T11:29:29;100737.84;;;4.96;100.00
58243;BME280;50118;53.232;8.252;2024-02-26T11:31:59;100745.91;;;4.69;100.00
58243;BME280;50118;53.232;8.252;2024-02-26T11:34:25;100744.19;;;4.68;100.00
58243;BME280;50118;53.232;8.252;2024-02-26T11:36:51;100744.84;;;4.72;100.00
58243;BME280;50118;53.232;8.252;2024-02-26T11:39:16;100753.94;;;4.80;100.00
58243;BME280;50118;53.232;8.252;2024-02-26T11:41:42;100744.63;;;4.75;100.00
58243;BME280;50118;53.232;8.252;2024-02-26T11:44:08;100753.28;;;4.64;100.00
58243;BME280;50118;53.232;8.252;2024-02-26T11:46:42;100745.38;;;4.77;100.00
58243;BME280;50118;53.232;8.252;2024-02-26T11:49:38;100761.94;;;4.79;100.00
58243;BME280;50118;53.232;8.252;2024-02-26T11:52:08;100751.81;;;4.73;100.00
58243;BME280;50118;53.232;8.252;2024-02-26T11:54:44;100752.84;;;4.83;100.00
58243;BME280;50118;53.232;8.252;2024-02-26T11:59:49;100758.75;;;4.99;100.00
58243;BME280;50118;53.232;8.252;2024-02-26T12:02:39;100765.56;;;4.65;100.00
58243;BME280;50118;53.232;8.252;2024-02-26T12:05:19;100763.44;;;4.57;100.00
58243;BME280;50118;53.232;8.252;2024-02-26T12:08:01;100753.09;;;4.67;100.00
58243;BME280;50118;53.232;8.252;2024-02-26T12:13:10;100757.41;;;4.68;100.00
58243;BME280;50118;53.232;8.252;2024-02-26T12:15:38;100753.94;;;4.80;100.00
58243;BME280;50118;53.232;8.252;2024-02-26T12:18:06;100753.31;;;4.77;100.00
58243;BME280;50118;53.232;8.252;2024-02-26T12:20:33;100764.47;;;4.80;100.00
58243;BME280;50118;53.232;8.252;2024-02-26T12:22:58;100767.75;;;4.84;100.00
58243;BME280;50118;53.232;8.252;2024-02-26T12:25:26;100773.19;;;4.94;100.00
58243;BME280;50118;53.232;8.252;2024-02-26T12:27:52;100775.63;;;5.10;100.00
58243;BME280;50118;53.232;8.252;2024-02-26T12:30:18;100777.69;;;5.17;100.00
58243;BME280;50118;53.232;8.252;2024-02-26T12:32:45;100776.66;;;5.20;100.00
58243;BME280;50118;53.232;8.252;2024-02-26T12:35:11;100781.50;;;5.26;100.00
58243;BME280;50118;53.232;8.252;2024-02-26T12:37:38;100784.00;;;5.28;100.00
58243;BME280;50118;53.232;8.252;2024-02-26T12:40:07;100783.66;;;5.45;100.00
58243;BME280;50118;53.232;8.252;2024-02-26T12:42:34;100788.63;;;5.74;100.00
58243;BME280;50118;53.232;8.252;2024-02-26T12:45:05;100795.03;;;5.58;100.00
58243;BME280;50118;53.232;8.252;2024-02-26T12:50:03;100785.41;;;6.06;100.00